sensor_id;sensor_type;location;lat;lon;timestamp;temperature;humidity
67899;DHT22;54699;51.796;10.956;2022-09-09T00:00:18;23.50;53.90
67899;DHT22;54699;51.796;10.956;2022-09-09T00:02:49;23.50;53.70
67899;DHT22;54699;51.796;10.956;2022-09-09T00:05:23;23.50;54.10
67899;DHT22;54699;51.796;10.956;2022-09-09T00:07:55;23.50;54.20
67899;DHT22;54699;51.796;10.956;2022-09-09T00:10:29;23.50;54.10
67899;DHT22;54699;51.796;10.956;2022-09-09T00:13:02;23.50;53.90
67899;DHT22;54699;51.796;10.956;2022-09-09T00:15:37;23.40;53.80
67899;DHT22;54699;51.796;10.956;2022-09-09T00:18:11;23.40;53.90
67899;DHT22;54699;51.796;10.956;2022-09-09T00:20:44;23.40;54.40
67899;DHT22;54699;51.796;10.956;2022-09-09T00:23:18;23.50;53.30
67899;DHT22;54699;51.796;10.956;2022-09-09T00:25:53;23.50;53.90
67899;DHT22;54699;51.796;10.956;2022-09-09T00:28:27;23.40;53.90
67899;DHT22;54699;51.796;10.956;2022-09-09T00:30:59;23.40;54.30
67899;DHT22;54699;51.796;10.956;2022-09-09T00:33:35;23.40;53.40
67899;DHT22;54699;51.796;10.956;2022-09-09T00:36:02;23.40;53.70
67899;DHT22;54699;51.796;10.956;2022-09-09T00:38:37;23.40;53.60
67899;DHT22;54699;51.796;10.956;2022-09-09T00:41:09;23.40;53.30
67899;DHT22;54699;51.796;10.956;2022-09-09T00:43:42;23.40;53.50
67899;DHT22;54699;51.796;10.956;2022-09-09T00:46:25;23.40;53.50
67899;DHT22;54699;51.796;10.956;2022-09-09T00:49:12;23.40;53.20
67899;DHT22;54699;51.796;10.956;2022-09-09T00:51:48;23.40;53.60
67899;DHT22;54699;51.796;10.956;2022-09-09T00:54:26;23.40;53.50
67899;DHT22;54699;51.796;10.956;2022-09-09T00:57:03;23.40;53.30
67899;DHT22;54699;51.796;10.956;2022-09-09T00:59:43;23.40;53.70
67899;DHT22;54699;51.796;10.956;2022-09-09T01:02:15;23.40;53.50
67899;DHT22;54699;51.796;10.956;2022-09-09T01:04:52;23.40;53.80
67899;DHT22;54699;51.796;10.956;2022-09-09T01:07:20;23.40;53.90
67899;DHT22;54699;51.796;10.956;2022-09-09T01:09:54;23.40;53.40
67899;DHT22;54699;51.796;10.956;2022-09-09T01:12:24;23.40;53.30
67899;DHT22;54699;51.796;10.956;2022-09-09T01:15:00;23.40;53.20
67899;DHT22;54699;51.796;10.956;2022-09-09T01:17:37;23.40;53.90
67899;DHT22;54699;51.796;10.956;2022-09-09T01:20:14;23.40;53.00
67899;DHT22;54699;51.796;10.956;2022-09-09T01:22:45;23.40;53.50
67899;DHT22;54699;51.796;10.956;2022-09-09T01:25:56;23.40;53.30
67899;DHT22;54699;51.796;10.956;2022-09-09T01:28:42;23.40;53.30
67899;DHT22;54699;51.796;10.956;2022-09-09T01:31:11;23.40;53.20
67899;DHT22;54699;51.796;10.956;2022-09-09T01:33:41;23.40;53.10
67899;DHT22;54699;51.796;10.956;2022-09-09T01:36:09;23.40;52.90
67899;DHT22;54699;51.796;10.956;2022-09-09T01:38:41;23.40;53.20
67899;DHT22;54699;51.796;10.956;2022-09-09T01:41:09;23.40;53.20
67899;DHT22;54699;51.796;10.956;2022-09-09T01:43:36;23.40;53.20
67899;DHT22;54699;51.796;10.956;2022-09-09T01:46:04;23.40;53.20
67899;DHT22;54699;51.796;10.956;2022-09-09T01:48:31;23.40;53.10
67899;DHT22;54699;51.796;10.956;2022-09-09T01:50:58;23.40;53.30
67899;DHT22;54699;51.796;10.956;2022-09-09T01:53:25;23.40;52.90
67899;DHT22;54699;51.796;10.956;2022-09-09T01:55:55;23.40;52.80
67899;DHT22;54699;51.796;10.956;2022-09-09T01:58:33;23.40;53.10
67899;DHT22;54699;51.796;10.956;2022-09-09T02:01:10;23.40;52.60
67899;DHT22;54699;51.796;10.956;2022-09-09T02:03:44;23.30;52.90
67899;DHT22;54699;51.796;10.956;2022-09-09T02:06:19;23.40;52.90
67899;DHT22;54699;51.796;10.956;2022-09-09T02:08:53;23.40;53.10
67899;DHT22;54699;51.796;10.956;2022-09-09T02:11:23;23.30;52.70
67899;DHT22;54699;51.796;10.956;2022-09-09T02:13:54;23.30;53.00
67899;DHT22;54699;51.796;10.956;2022-09-09T02:16:26;23.40;52.90
67899;DHT22;54699;51.796;10.956;2022-09-09T02:18:58;23.30;52.90
67899;DHT22;54699;51.796;10.956;2022-09-09T02:21:28;23.30;52.90
67899;DHT22;54699;51.796;10.956;2022-09-09T02:23:57;23.30;52.60
67899;DHT22;54699;51.796;10.956;2022-09-09T02:26:29;23.30;52.40
67899;DHT22;54699;51.796;10.956;2022-09-09T02:29:01;23.30;52.80
67899;DHT22;54699;51.796;10.956;2022-09-09T02:31:29;23.30;52.70
67899;DHT22;54699;51.796;10.956;2022-09-09T02:33:58;23.30;52.70
67899;DHT22;54699;51.796;10.956;2022-09-09T02:36:29;23.30;52.60
67899;DHT22;54699;51.796;10.956;2022-09-09T02:38:59;23.30;53.10
67899;DHT22;54699;51.796;10.956;2022-09-09T02:41:28;23.30;53.00
67899;DHT22;54699;51.796;10.956;2022-09-09T02:43:57;23.30;53.00
67899;DHT22;54699;51.796;10.956;2022-09-09T02:46:29;23.30;52.70
67899;DHT22;54699;51.796;10.956;2022-09-09T02:49:09;23.30;52.70
67899;DHT22;54699;51.796;10.956;2022-09-09T02:51:40;23.30;52.70
67899;DHT22;54699;51.796;10.956;2022-09-09T02:54:19;23.30;53.10
67899;DHT22;54699;51.796;10.956;2022-09-09T02:56:52;23.30;53.10
67899;DHT22;54699;51.796;10.956;2022-09-09T02:59:20;23.30;52.70
67899;DHT22;54699;51.796;10.956;2022-09-09T03:01:49;23.30;52.70
67899;DHT22;54699;51.796;10.956;2022-09-09T03:04:16;23.30;52.20
67899;DHT22;54699;51.796;10.956;2022-09-09T03:06:43;23.20;52.60
67899;DHT22;54699;51.796;10.956;2022-09-09T03:09:10;23.30;52.60
67899;DHT22;54699;51.796;10.956;2022-09-09T03:11:37;23.30;52.50
67899;DHT22;54699;51.796;10.956;2022-09-09T03:14:04;23.20;52.60
67899;DHT22;54699;51.796;10.956;2022-09-09T03:16:31;23.30;52.40
67899;DHT22;54699;51.796;10.956;2022-09-09T03:19:00;23.30;52.30
67899;DHT22;54699;51.796;10.956;2022-09-09T03:21:27;23.30;52.60
67899;DHT22;54699;51.796;10.956;2022-09-09T03:23:54;23.20;52.40
67899;DHT22;54699;51.796;10.956;2022-09-09T03:26:22;23.30;52.60
67899;DHT22;54699;51.796;10.956;2022-09-09T03:28:49;23.30;52.50
67899;DHT22;54699;51.796;10.956;2022-09-09T03:31:17;23.30;52.20
67899;DHT22;54699;51.796;10.956;2022-09-09T03:33:44;23.30;52.10
67899;DHT22;54699;51.796;10.956;2022-09-09T03:36:12;23.20;52.10
67899;DHT22;54699;51.796;10.956;2022-09-09T03:38:40;23.30;52.70
67899;DHT22;54699;51.796;10.956;2022-09-09T03:41:06;23.20;52.40
67899;DHT22;54699;51.796;10.956;2022-09-09T03:43:34;23.20;52.50
67899;DHT22;54699;51.796;10.956;2022-09-09T03:46:02;23.20;52.50
67899;DHT22;54699;51.796;10.956;2022-09-09T03:48:29;23.20;52.60
67899;DHT22;54699;51.796;10.956;2022-09-09T03:50:56;23.20;52.50
67899;DHT22;54699;51.796;10.956;2022-09-09T03:53:27;23.20;52.40
67899;DHT22;54699;51.796;10.956;2022-09-09T03:55:55;23.20;52.40
67899;DHT22;54699;51.796;10.956;2022-09-09T03:58:25;23.20;52.00
67899;DHT22;54699;51.796;10.956;2022-09-09T04:00:53;23.20;53.00
67899;DHT22;54699;51.796;10.956;2022-09-09T04:03:20;23.20;52.50
67899;DHT22;54699;51.796;10.956;2022-09-09T04:05:49;23.20;52.40
67899;DHT22;54699;51.796;10.956;2022-09-09T04:08:16;23.20;52.50
67899;DHT22;54699;51.796;10.956;2022-09-09T04:10:45;23.20;52.40
67899;DHT22;54699;51.796;10.956;2022-09-09T04:13:13;23.10;52.20
67899;DHT22;54699;51.796;10.956;2022-09-09T04:15:40;23.20;52.60
67899;DHT22;54699;51.796;10.956;2022-09-09T04:18:07;23.10;52.90
67899;DHT22;54699;51.796;10.956;2022-09-09T04:20:34;23.10;52.20
67899;DHT22;54699;51.796;10.956;2022-09-09T04:23:01;23.10;52.20
67899;DHT22;54699;51.796;10.956;2022-09-09T04:25:28;23.10;52.90
67899;DHT22;54699;51.796;10.956;2022-09-09T04:27:57;23.10;52.80
67899;DHT22;54699;51.796;10.956;2022-09-09T04:30:24;23.10;52.80
67899;DHT22;54699;51.796;10.956;2022-09-09T04:32:52;23.10;52.30
67899;DHT22;54699;51.796;10.956;2022-09-09T04:35:19;23.10;52.00
67899;DHT22;54699;51.796;10.956;2022-09-09T04:37:46;23.20;52.80
67899;DHT22;54699;51.796;10.956;2022-09-09T04:40:13;23.10;51.80
67899;DHT22;54699;51.796;10.956;2022-09-09T04:42:40;23.10;51.40
67899;DHT22;54699;51.796;10.956;2022-09-09T04:45:10;23.10;52.80
67899;DHT22;54699;51.796;10.956;2022-09-09T04:47:38;23.10;52.90
67899;DHT22;54699;51.796;10.956;2022-09-09T04:50:05;23.00;51.90
67899;DHT22;54699;51.796;10.956;2022-09-09T04:52:33;23.00;51.00
67899;DHT22;54699;51.796;10.956;2022-09-09T04:55:02;23.00;50.90
67899;DHT22;54699;51.796;10.956;2022-09-09T04:57:30;22.80;51.70
67899;DHT22;54699;51.796;10.956;2022-09-09T05:00:04;22.80;51.00
67899;DHT22;54699;51.796;10.956;2022-09-09T05:03:14;22.80;51.10
67899;DHT22;54699;51.796;10.956;2022-09-09T05:05:41;22.40;52.90
67899;DHT22;54699;51.796;10.956;2022-09-09T05:08:08;22.50;52.60
67899;DHT22;54699;51.796;10.956;2022-09-09T05:10:36;22.50;52.30
67899;DHT22;54699;51.796;10.956;2022-09-09T05:13:04;22.50;52.30
67899;DHT22;54699;51.796;10.956;2022-09-09T05:15:31;22.50;51.90
67899;DHT22;54699;51.796;10.956;2022-09-09T05:17:58;22.50;51.50
67899;DHT22;54699;51.796;10.956;2022-09-09T05:20:27;22.50;51.30
67899;DHT22;54699;51.796;10.956;2022-09-09T05:22:54;22.40;51.30
67899;DHT22;54699;51.796;10.956;2022-09-09T05:25:22;22.40;51.20
67899;DHT22;54699;51.796;10.956;2022-09-09T05:27:51;22.20;51.60
67899;DHT22;54699;51.796;10.956;2022-09-09T05:30:19;22.00;52.20
67899;DHT22;54699;51.796;10.956;2022-09-09T05:32:47;21.80;52.70
67899;DHT22;54699;51.796;10.956;2022-09-09T05:35:14;21.70;54.10
67899;DHT22;54699;51.796;10.956;2022-09-09T05:37:43;21.70;53.10
67899;DHT22;54699;51.796;10.956;2022-09-09T05:40:11;21.50;53.20
67899;DHT22;54699;51.796;10.956;2022-09-09T05:42:38;21.40;53.60
67899;DHT22;54699;51.796;10.956;2022-09-09T05:45:06;21.30;54.10
67899;DHT22;54699;51.796;10.956;2022-09-09T05:47:34;21.30;54.20
67899;DHT22;54699;51.796;10.956;2022-09-09T05:50:02;21.30;54.50
67899;DHT22;54699;51.796;10.956;2022-09-09T05:52:30;21.40;54.40
67899;DHT22;54699;51.796;10.956;2022-09-09T05:55:03;21.30;54.30
67899;DHT22;54699;51.796;10.956;2022-09-09T05:57:32;21.30;54.70
67899;DHT22;54699;51.796;10.956;2022-09-09T05:59:59;21.30;54.90
67899;DHT22;54699;51.796;10.956;2022-09-09T06:02:32;21.10;55.10
67899;DHT22;54699;51.796;10.956;2022-09-09T06:05:03;21.00;55.30
67899;DHT22;54699;51.796;10.956;2022-09-09T06:07:31;21.10;55.20
67899;DHT22;54699;51.796;10.956;2022-09-09T06:09:59;20.90;55.50
67899;DHT22;54699;51.796;10.956;2022-09-09T06:12:28;20.90;55.60
67899;DHT22;54699;51.796;10.956;2022-09-09T06:14:55;21.00;55.30
67899;DHT22;54699;51.796;10.956;2022-09-09T06:17:22;20.90;55.30
67899;DHT22;54699;51.796;10.956;2022-09-09T06:19:49;21.00;55.40
67899;DHT22;54699;51.796;10.956;2022-09-09T06:22:16;21.00;55.20
67899;DHT22;54699;51.796;10.956;2022-09-09T06:24:43;21.00;55.10
67899;DHT22;54699;51.796;10.956;2022-09-09T06:27:10;21.10;55.00
67899;DHT22;54699;51.796;10.956;2022-09-09T06:29:40;21.00;55.00
67899;DHT22;54699;51.796;10.956;2022-09-09T06:32:06;21.40;54.20
67899;DHT22;54699;51.796;10.956;2022-09-09T06:34:34;21.30;54.10
67899;DHT22;54699;51.796;10.956;2022-09-09T06:37:01;21.30;54.40
67899;DHT22;54699;51.796;10.956;2022-09-09T06:39:29;21.30;54.30
67899;DHT22;54699;51.796;10.956;2022-09-09T06:41:56;21.40;54.20
67899;DHT22;54699;51.796;10.956;2022-09-09T06:44:24;21.40;54.00
67899;DHT22;54699;51.796;10.956;2022-09-09T06:46:53;21.40;53.90
67899;DHT22;54699;51.796;10.956;2022-09-09T06:49:20;21.30;54.60
67899;DHT22;54699;51.796;10.956;2022-09-09T06:51:47;21.30;54.70
67899;DHT22;54699;51.796;10.956;2022-09-09T06:54:14;21.10;56.10
67899;DHT22;54699;51.796;10.956;2022-09-09T06:56:42;21.30;55.00
67899;DHT22;54699;51.796;10.956;2022-09-09T06:59:10;21.40;54.90
67899;DHT22;54699;51.796;10.956;2022-09-09T07:01:39;21.40;55.10
67899;DHT22;54699;51.796;10.956;2022-09-09T07:04:09;21.50;54.60
67899;DHT22;54699;51.796;10.956;2022-09-09T07:06:37;21.40;54.80
67899;DHT22;54699;51.796;10.956;2022-09-09T07:09:06;21.20;55.20
67899;DHT22;54699;51.796;10.956;2022-09-09T07:11:36;21.30;55.30
67899;DHT22;54699;51.796;10.956;2022-09-09T07:14:05;21.20;55.40
67899;DHT22;54699;51.796;10.956;2022-09-09T07:16:32;21.20;55.40
67899;DHT22;54699;51.796;10.956;2022-09-09T07:19:02;21.20;55.30
67899;DHT22;54699;51.796;10.956;2022-09-09T07:21:31;21.10;55.50
67899;DHT22;54699;51.796;10.956;2022-09-09T07:23:59;21.10;55.70
67899;DHT22;54699;51.796;10.956;2022-09-09T07:26:28;21.10;56.00
67899;DHT22;54699;51.796;10.956;2022-09-09T07:28:56;21.10;55.80
67899;DHT22;54699;51.796;10.956;2022-09-09T07:31:24;21.00;55.90
67899;DHT22;54699;51.796;10.956;2022-09-09T07:33:53;21.10;55.80
67899;DHT22;54699;51.796;10.956;2022-09-09T07:36:22;20.90;56.10
67899;DHT22;54699;51.796;10.956;2022-09-09T07:41:45;20.90;56.50
67899;DHT22;54699;51.796;10.956;2022-09-09T07:44:22;21.00;57.50
67899;DHT22;54699;51.796;10.956;2022-09-09T07:46:54;21.10;56.20
67899;DHT22;54699;51.796;10.956;2022-09-09T07:49:22;21.10;56.10
67899;DHT22;54699;51.796;10.956;2022-09-09T07:52:00;21.10;56.20
67899;DHT22;54699;51.796;10.956;2022-09-09T07:54:38;21.10;56.10
67899;DHT22;54699;51.796;10.956;2022-09-09T07:57:10;21.00;56.50
67899;DHT22;54699;51.796;10.956;2022-09-09T08:00:16;21.00;56.70
67899;DHT22;54699;51.796;10.956;2022-09-09T08:02:53;21.20;56.30
67899;DHT22;54699;51.796;10.956;2022-09-09T08:05:22;21.00;56.70
67899;DHT22;54699;51.796;10.956;2022-09-09T08:08:08;20.90;56.70
67899;DHT22;54699;51.796;10.956;2022-09-09T08:10:37;21.10;56.40
67899;DHT22;54699;51.796;10.956;2022-09-09T08:13:04;21.00;56.70
67899;DHT22;54699;51.796;10.956;2022-09-09T08:15:31;20.90;56.70
67899;DHT22;54699;51.796;10.956;2022-09-09T08:18:00;20.90;56.70
67899;DHT22;54699;51.796;10.956;2022-09-09T08:20:27;21.10;56.80
67899;DHT22;54699;51.796;10.956;2022-09-09T08:22:55;21.00;56.80
67899;DHT22;54699;51.796;10.956;2022-09-09T08:25:22;21.00;57.00
67899;DHT22;54699;51.796;10.956;2022-09-09T08:27:52;20.90;57.10
67899;DHT22;54699;51.796;10.956;2022-09-09T08:30:20;21.00;57.10
67899;DHT22;54699;51.796;10.956;2022-09-09T08:32:48;21.00;57.10
67899;DHT22;54699;51.796;10.956;2022-09-09T08:35:16;20.90;57.30
67899;DHT22;54699;51.796;10.956;2022-09-09T08:37:45;21.00;57.30
67899;DHT22;54699;51.796;10.956;2022-09-09T08:40:17;21.20;56.60
67899;DHT22;54699;51.796;10.956;2022-09-09T08:42:51;21.20;56.80
67899;DHT22;54699;51.796;10.956;2022-09-09T08:45:24;21.20;57.10
67899;DHT22;54699;51.796;10.956;2022-09-09T08:48:13;21.20;57.40
67899;DHT22;54699;51.796;10.956;2022-09-09T08:50:51;21.30;56.90
67899;DHT22;54699;51.796;10.956;2022-09-09T08:53:27;21.50;56.00
67899;DHT22;54699;51.796;10.956;2022-09-09T08:55:57;21.60;56.30
67899;DHT22;54699;51.796;10.956;2022-09-09T08:58:31;21.70;55.70
67899;DHT22;54699;51.796;10.956;2022-09-09T09:01:02;21.80;55.10
67899;DHT22;54699;51.796;10.956;2022-09-09T09:03:47;21.90;54.60
67899;DHT22;54699;51.796;10.956;2022-09-09T09:06:37;21.80;55.30
67899;DHT22;54699;51.796;10.956;2022-09-09T09:09:47;21.80;55.30
67899;DHT22;54699;51.796;10.956;2022-09-09T09:12:25;21.90;55.00
67899;DHT22;54699;51.796;10.956;2022-09-09T09:14:57;22.10;54.80
67899;DHT22;54699;51.796;10.956;2022-09-09T09:17:27;22.10;54.50
67899;DHT22;54699;51.796;10.956;2022-09-09T09:19:58;22.10;54.60
67899;DHT22;54699;51.796;10.956;2022-09-09T09:22:31;22.10;55.00
67899;DHT22;54699;51.796;10.956;2022-09-09T09:25:08;22.10;54.80
67899;DHT22;54699;51.796;10.956;2022-09-09T09:27:43;22.20;54.80
67899;DHT22;54699;51.796;10.956;2022-09-09T09:30:21;22.30;53.70
67899;DHT22;54699;51.796;10.956;2022-09-09T09:32:52;22.20;54.10
67899;DHT22;54699;51.796;10.956;2022-09-09T09:35:22;22.30;54.10
67899;DHT22;54699;51.796;10.956;2022-09-09T09:38:18;22.40;53.80
67899;DHT22;54699;51.796;10.956;2022-09-09T09:44:38;22.40;53.90
67899;DHT22;54699;51.796;10.956;2022-09-09T09:47:56;22.60;53.20
67899;DHT22;54699;51.796;10.956;2022-09-09T09:50:29;22.60;52.90
67899;DHT22;54699;51.796;10.956;2022-09-09T09:53:24;22.80;52.60
67899;DHT22;54699;51.796;10.956;2022-09-09T09:56:12;22.90;52.20
67899;DHT22;54699;51.796;10.956;2022-09-09T10:06:04;23.30;51.30
67899;DHT22;54699;51.796;10.956;2022-09-09T10:08:33;23.30;51.50
67899;DHT22;54699;51.796;10.956;2022-09-09T10:11:20;23.40;51.60
67899;DHT22;54699;51.796;10.956;2022-09-09T10:13:59;23.40;51.40
67899;DHT22;54699;51.796;10.956;2022-09-09T10:16:39;23.30;50.60
67899;DHT22;54699;51.796;10.956;2022-09-09T10:19:18;23.30;50.80
67899;DHT22;54699;51.796;10.956;2022-09-09T10:22:08;23.20;50.90
67899;DHT22;54699;51.796;10.956;2022-09-09T10:24:51;23.20;50.80
67899;DHT22;54699;51.796;10.956;2022-09-09T10:27:37;23.10;50.70
67899;DHT22;54699;51.796;10.956;2022-09-09T10:30:14;23.10;50.60
67899;DHT22;54699;51.796;10.956;2022-09-09T10:32:45;23.10;50.70
67899;DHT22;54699;51.796;10.956;2022-09-09T10:35:26;23.10;50.80
67899;DHT22;54699;51.796;10.956;2022-09-09T10:38:02;23.10;50.70
67899;DHT22;54699;51.796;10.956;2022-09-09T10:40:43;23.10;50.70
67899;DHT22;54699;51.796;10.956;2022-09-09T10:43:32;23.20;50.70
67899;DHT22;54699;51.796;10.956;2022-09-09T10:46:12;23.10;50.90
67899;DHT22;54699;51.796;10.956;2022-09-09T10:48:53;23.20;51.10
67899;DHT22;54699;51.796;10.956;2022-09-09T10:51:33;23.30;50.70
67899;DHT22;54699;51.796;10.956;2022-09-09T10:54:17;23.30;50.70
67899;DHT22;54699;51.796;10.956;2022-09-09T10:56:56;23.30;50.50
67899;DHT22;54699;51.796;10.956;2022-09-09T10:59:28;23.30;50.40
67899;DHT22;54699;51.796;10.956;2022-09-09T11:02:00;23.20;50.30
67899;DHT22;54699;51.796;10.956;2022-09-09T11:04:34;23.20;50.40
67899;DHT22;54699;51.796;10.956;2022-09-09T11:07:06;23.30;50.70
67899;DHT22;54699;51.796;10.956;2022-09-09T11:09:40;23.30;50.50
67899;DHT22;54699;51.796;10.956;2022-09-09T11:12:15;23.40;50.30
67899;DHT22;54699;51.796;10.956;2022-09-09T11:14:46;23.40;50.80
67899;DHT22;54699;51.796;10.956;2022-09-09T11:17:18;23.40;50.00
67899;DHT22;54699;51.796;10.956;2022-09-09T11:19:49;23.50;50.00
67899;DHT22;54699;51.796;10.956;2022-09-09T11:22:19;23.50;49.40
67899;DHT22;54699;51.796;10.956;2022-09-09T11:24:57;23.50;49.50
67899;DHT22;54699;51.796;10.956;2022-09-09T11:27:28;23.60;49.50
67899;DHT22;54699;51.796;10.956;2022-09-09T11:30:03;23.60;49.10
67899;DHT22;54699;51.796;10.956;2022-09-09T11:35:46;23.60;48.90
67899;DHT22;54699;51.796;10.956;2022-09-09T11:38:26;23.50;49.00
67899;DHT22;54699;51.796;10.956;2022-09-09T11:40:55;23.50;49.20
67899;DHT22;54699;51.796;10.956;2022-09-09T11:43:27;23.50;48.90
67899;DHT22;54699;51.796;10.956;2022-09-09T11:45:57;23.60;48.70
67899;DHT22;54699;51.796;10.956;2022-09-09T11:48:29;23.70;48.70
67899;DHT22;54699;51.796;10.956;2022-09-09T11:51:00;23.80;48.60
67899;DHT22;54699;51.796;10.956;2022-09-09T11:53:30;23.70;48.50
67899;DHT22;54699;51.796;10.956;2022-09-09T11:56:12;23.80;48.30
67899;DHT22;54699;51.796;10.956;2022-09-09T11:58:44;23.70;48.30
67899;DHT22;54699;51.796;10.956;2022-09-09T12:01:28;23.80;48.10
67899;DHT22;54699;51.796;10.956;2022-09-09T12:04:10;23.80;48.10
67899;DHT22;54699;51.796;10.956;2022-09-09T12:06:59;23.80;47.90
67899;DHT22;54699;51.796;10.956;2022-09-09T12:09:29;23.80;47.70
67899;DHT22;54699;51.796;10.956;2022-09-09T12:15:16;23.90;47.80
67899;DHT22;54699;51.796;10.956;2022-09-09T12:17:49;23.80;47.80
67899;DHT22;54699;51.796;10.956;2022-09-09T12:20:18;23.90;47.60
67899;DHT22;54699;51.796;10.956;2022-09-09T12:22:59;23.90;47.20
67899;DHT22;54699;51.796;10.956;2022-09-09T12:25:46;23.90;47.30
67899;DHT22;54699;51.796;10.956;2022-09-09T12:28:27;23.90;47.10
67899;DHT22;54699;51.796;10.956;2022-09-09T12:31:09;23.90;47.10
67899;DHT22;54699;51.796;10.956;2022-09-09T12:33:43;24.00;47.10
67899;DHT22;54699;51.796;10.956;2022-09-09T12:36:13;24.10;46.90
67899;DHT22;54699;51.796;10.956;2022-09-09T12:38:44;24.10;47.10
67899;DHT22;54699;51.796;10.956;2022-09-09T12:41:21;24.00;46.70
67899;DHT22;54699;51.796;10.956;2022-09-09T12:43:51;24.10;48.40
67899;DHT22;54699;51.796;10.956;2022-09-09T12:46:33;24.00;50.60
67899;DHT22;54699;51.796;10.956;2022-09-09T12:49:04;23.90;48.90
67899;DHT22;54699;51.796;10.956;2022-09-09T12:51:32;24.00;47.90
67899;DHT22;54699;51.796;10.956;2022-09-09T12:53:59;24.10;48.30
67899;DHT22;54699;51.796;10.956;2022-09-09T12:56:27;23.80;52.00
67899;DHT22;54699;51.796;10.956;2022-09-09T12:58:58;23.80;52.50
67899;DHT22;54699;51.796;10.956;2022-09-09T13:01:26;23.70;52.60
67899;DHT22;54699;51.796;10.956;2022-09-09T13:03:55;23.70;52.40
67899;DHT22;54699;51.796;10.956;2022-09-09T13:06:22;23.90;50.00
67899;DHT22;54699;51.796;10.956;2022-09-09T13:08:51;24.00;50.80
67899;DHT22;54699;51.796;10.956;2022-09-09T13:11:19;24.00;48.80
67899;DHT22;54699;51.796;10.956;2022-09-09T13:13:51;24.10;48.40
67899;DHT22;54699;51.796;10.956;2022-09-09T13:16:23;24.30;47.30
67899;DHT22;54699;51.796;10.956;2022-09-09T13:18:57;24.40;48.70
67899;DHT22;54699;51.796;10.956;2022-09-09T13:21:31;24.10;48.20
67899;DHT22;54699;51.796;10.956;2022-09-09T13:23:59;24.20;47.90
67899;DHT22;54699;51.796;10.956;2022-09-09T13:26:28;24.10;48.30
67899;DHT22;54699;51.796;10.956;2022-09-09T13:28:55;24.30;48.00
67899;DHT22;54699;51.796;10.956;2022-09-09T13:31:43;24.30;48.30
67899;DHT22;54699;51.796;10.956;2022-09-09T13:34:10;24.40;46.40
67899;DHT22;54699;51.796;10.956;2022-09-09T13:36:39;24.40;46.90
67899;DHT22;54699;51.796;10.956;2022-09-09T13:39:13;24.30;47.30
67899;DHT22;54699;51.796;10.956;2022-09-09T13:41:43;24.30;47.60
67899;DHT22;54699;51.796;10.956;2022-09-09T13:44:14;24.10;47.30
67899;DHT22;54699;51.796;10.956;2022-09-09T13:46:47;24.20;48.00
67899;DHT22;54699;51.796;10.956;2022-09-09T13:49:19;24.10;47.80
67899;DHT22;54699;51.796;10.956;2022-09-09T13:51:49;24.10;47.80
67899;DHT22;54699;51.796;10.956;2022-09-09T13:54:19;24.30;47.00
67899;DHT22;54699;51.796;10.956;2022-09-09T13:56:48;24.30;47.30
67899;DHT22;54699;51.796;10.956;2022-09-09T13:59:16;24.30;47.30
67899;DHT22;54699;51.796;10.956;2022-09-09T14:01:47;24.30;47.30
67899;DHT22;54699;51.796;10.956;2022-09-09T14:04:16;24.30;47.40
67899;DHT22;54699;51.796;10.956;2022-09-09T14:06:43;24.40;47.80
67899;DHT22;54699;51.796;10.956;2022-09-09T14:09:11;24.30;48.20
67899;DHT22;54699;51.796;10.956;2022-09-09T14:11:40;24.40;49.20
67899;DHT22;54699;51.796;10.956;2022-09-09T14:14:07;24.40;49.20
67899;DHT22;54699;51.796;10.956;2022-09-09T14:16:34;24.40;49.30
67899;DHT22;54699;51.796;10.956;2022-09-09T14:19:03;24.50;48.60
67899;DHT22;54699;51.796;10.956;2022-09-09T14:21:30;24.50;48.90
67899;DHT22;54699;51.796;10.956;2022-09-09T14:23:57;24.60;49.20
67899;DHT22;54699;51.796;10.956;2022-09-09T14:26:24;24.60;47.90
67899;DHT22;54699;51.796;10.956;2022-09-09T14:28:51;24.70;48.10
67899;DHT22;54699;51.796;10.956;2022-09-09T14:31:18;24.70;48.00
67899;DHT22;54699;51.796;10.956;2022-09-09T14:33:46;24.60;47.90
67899;DHT22;54699;51.796;10.956;2022-09-09T14:36:14;24.60;48.80
67899;DHT22;54699;51.796;10.956;2022-09-09T14:38:41;24.60;49.00
67899;DHT22;54699;51.796;10.956;2022-09-09T14:41:08;24.70;48.30
67899;DHT22;54699;51.796;10.956;2022-09-09T14:43:37;24.70;47.70
67899;DHT22;54699;51.796;10.956;2022-09-09T14:46:04;24.70;49.20
67899;DHT22;54699;51.796;10.956;2022-09-09T14:48:31;24.70;48.60
67899;DHT22;54699;51.796;10.956;2022-09-09T14:51:04;24.80;48.50
67899;DHT22;54699;51.796;10.956;2022-09-09T14:53:32;24.90;48.20
67899;DHT22;54699;51.796;10.956;2022-09-09T14:56:03;25.00;47.70
67899;DHT22;54699;51.796;10.956;2022-09-09T14:58:31;25.00;47.60
67899;DHT22;54699;51.796;10.956;2022-09-09T15:01:01;25.00;47.90
67899;DHT22;54699;51.796;10.956;2022-09-09T15:03:29;25.10;48.40
67899;DHT22;54699;51.796;10.956;2022-09-09T15:05:56;25.10;48.70
67899;DHT22;54699;51.796;10.956;2022-09-09T15:08:23;25.10;48.60
67899;DHT22;54699;51.796;10.956;2022-09-09T15:10:57;25.10;48.60
67899;DHT22;54699;51.796;10.956;2022-09-09T15:13:25;25.10;48.80
67899;DHT22;54699;51.796;10.956;2022-09-09T15:15:52;25.10;48.70
67899;DHT22;54699;51.796;10.956;2022-09-09T15:18:19;25.10;48.90
67899;DHT22;54699;51.796;10.956;2022-09-09T15:20:46;25.10;49.10
67899;DHT22;54699;51.796;10.956;2022-09-09T15:23:13;25.10;49.30
67899;DHT22;54699;51.796;10.956;2022-09-09T15:25:49;25.00;49.00
67899;DHT22;54699;51.796;10.956;2022-09-09T15:28:18;25.00;49.50
67899;DHT22;54699;51.796;10.956;2022-09-09T15:30:47;25.00;49.40
67899;DHT22;54699;51.796;10.956;2022-09-09T15:33:14;25.00;49.40
67899;DHT22;54699;51.796;10.956;2022-09-09T15:35:40;25.00;49.50
67899;DHT22;54699;51.796;10.956;2022-09-09T15:38:07;24.90;49.50
67899;DHT22;54699;51.796;10.956;2022-09-09T15:40:34;24.90;49.70
67899;DHT22;54699;51.796;10.956;2022-09-09T15:43:02;24.80;49.70
67899;DHT22;54699;51.796;10.956;2022-09-09T15:45:30;24.90;49.80
67899;DHT22;54699;51.796;10.956;2022-09-09T15:47:58;24.90;50.10
67899;DHT22;54699;51.796;10.956;2022-09-09T15:50:25;24.80;50.00
67899;DHT22;54699;51.796;10.956;2022-09-09T15:52:53;24.80;50.30
67899;DHT22;54699;51.796;10.956;2022-09-09T15:55:20;24.80;50.40
67899;DHT22;54699;51.796;10.956;2022-09-09T15:57:47;24.80;50.50
67899;DHT22;54699;51.796;10.956;2022-09-09T16:00:15;24.70;50.50
67899;DHT22;54699;51.796;10.956;2022-09-09T16:02:42;24.70;50.50